Time;durP1;ratioP1;P1;durP2;ratioP2;P2;SDS_P1;SDS_P2;PMS_P1;PMS_P2;Temp;Humidity;BMP_temperature;BMP_pressure;BME280_temperature;BME280_humidity;BME280_pressure;Samples;Min_cycle;Max_cycle;Signal;HPM_P1;HPM_P2
2024/01/09 00:01:15;;;;;;;;;;;24.20;25.30;;;;;;5092662;28;20367;-69
2024/01/09 00:03:41;;;;;;;;;;;24.30;25.20;;;;;;5092634;28;19927;-68
2024/01/09 00:06:12;;;;;;;;;;;24.40;25.10;;;;;;5090993;28;19932;-68
2024/01/09 00:08:37;;;;;;;;;;;24.40;25.10;;;;;;5092576;28;19966;-68
2024/01/09 00:11:03;;;;;;;;;;;24.50;25.00;;;;;;5092431;28;19920;-68
2024/01/09 00:13:28;;;;;;;;;;;24.60;25.00;;;;;;5092325;28;19920;-68
2024/01/09 00:15:54;;;;;;;;;;;24.60;25.00;;;;;;5091166;28;19974;-68
2024/01/09 00:18:19;;;;;;;;;;;24.70;25.00;;;;;;5092828;28;19920;-68
2024/01/09 00:20:45;;;;;;;;;;;24.70;25.00;;;;;;5091336;28;20378;-69
2024/01/09 00:23:11;;;;;;;;;;;24.70;25.00;;;;;;5092846;28;19920;-69
2024/01/09 00:25:36;;;;;;;;;;;24.70;25.00;;;;;;5090960;28;19920;-68
2024/01/09 00:28:05;;;;;;;;;;;24.80;25.00;;;;;;5091339;28;19924;-68
2024/01/09 00:30:30;;;;;;;;;;;24.80;25.00;;;;;;5092277;28;19927;-68
2024/01/09 00:32:56;;;;;;;;;;;24.80;24.90;;;;;;5090997;28;19920;-68
2024/01/09 00:35:21;;;;;;;;;;;24.80;25.00;;;;;;5091271;28;19924;-68
2024/01/09 00:37:47;;;;;;;;;;;24.90;25.00;;;;;;5091214;28;19920;-68
2024/01/09 00:40:13;;;;;;;;;;;24.90;25.00;;;;;;5091205;28;19920;-68
2024/01/09 00:42:38;;;;;;;;;;;24.90;25.00;;;;;;5092163;28;20302;-68
2024/01/09 00:45:06;;;;;;;;;;;24.90;25.00;;;;;;5090763;28;19950;-69
2024/01/09 00:47:35;;;;;;;;;;;24.90;25.00;;;;;;5090660;28;19966;-68
2024/01/09 00:50:00;;;;;;;;;;;24.90;25.00;;;;;;5090827;28;20367;-68
2024/01/09 00:52:26;;;;;;;;;;;24.90;25.00;;;;;;5092070;28;19928;-68
2024/01/09 00:54:51;;;;;;;;;;;24.90;25.00;;;;;;5091894;28;19930;-68
2024/01/09 00:57:17;;;;;;;;;;;25.00;25.10;;;;;;5090691;28;19967;-68
2024/01/09 00:59:46;;;;;;;;;;;24.90;25.00;;;;;;5090957;28;19999;-68
2024/01/09 01:02:11;;;;;;;;;;;24.90;25.00;;;;;;5090968;28;19920;-68
2024/01/09 01:04:38;;;;;;;;;;;24.90;25.10;;;;;;5091004;28;20046;-68
2024/01/09 01:07:03;;;;;;;;;;;24.90;25.00;;;;;;5091557;28;19931;-69
2024/01/09 01:09:29;;;;;;;;;;;25.00;25.10;;;;;;5091882;28;20280;-68
2024/01/09 01:11:54;;;;;;;;;;;25.00;25.00;;;;;;5090837;28;19920;-68
2024/01/09 01:14:21;;;;;;;;;;;25.00;25.00;;;;;;5093964;28;19999;-69
2024/01/09 01:16:46;;;;;;;;;;;25.00;25.00;;;;;;5094161;28;19923;-68
2024/01/09 01:19:12;;;;;;;;;;;25.00;25.00;;;;;;5094422;28;19924;-68
2024/01/09 01:21:37;;;;;;;;;;;25.00;25.00;;;;;;5095495;28;19973;-68
2024/01/09 01:24:06;;;;;;;;;;;25.00;25.00;;;;;;5094408;28;20356;-68
2024/01/09 01:26:32;;;;;;;;;;;25.00;25.00;;;;;;5094050;28;19924;-69
2024/01/09 01:28:57;;;;;;;;;;;25.10;25.00;;;;;;5094121;28;20299;-68
2024/01/09 01:31:23;;;;;;;;;;;25.00;24.90;;;;;;5094252;28;20056;-69
2024/01/09 01:33:48;;;;;;;;;;;25.00;24.90;;;;;;5095084;28;19927;-68
2024/01/09 01:36:14;;;;;;;;;;;25.00;24.90;;;;;;5094140;28;19927;-68
2024/01/09 01:38:40;;;;;;;;;;;25.00;24.90;;;;;;5094017;28;19920;-68
2024/01/09 01:41:06;;;;;;;;;;;25.00;25.00;;;;;;5093867;28;20363;-69
2024/01/09 01:43:31;;;;;;;;;;;24.90;25.00;;;;;;5093957;28;19931;-69
2024/01/09 01:45:57;;;;;;;;;;;24.80;25.00;;;;;;5093747;28;20420;-68
2024/01/09 01:48:23;;;;;;;;;;;24.80;25.10;;;;;;5095091;28;20448;-68
2024/01/09 01:50:49;;;;;;;;;;;24.70;25.10;;;;;;5095021;28;19920;-68
2024/01/09 01:53:15;;;;;;;;;;;24.70;25.10;;;;;;5095063;28;19920;-68
2024/01/09 01:55:41;;;;;;;;;;;24.70;25.10;;;;;;5094045;28;19955;-68
2024/01/09 01:58:09;;;;;;;;;;;24.70;25.10;;;;;;5094882;28;19978;-68
2024/01/09 02:00:35;;;;;;;;;;;24.70;25.10;;;;;;5094995;28;19920;-68
2024/01/09 02:03:01;;;;;;;;;;;24.80;25.00;;;;;;5093313;28;19920;-68
2024/01/09 02:05:27;;;;;;;;;;;24.80;25.00;;;;;;5093378;28;20508;-68
2024/01/09 02:07:54;;;;;;;;;;;24.90;25.00;;;;;;5093239;28;19935;-68
2024/01/09 02:10:20;;;;;;;;;;;24.90;24.90;;;;;;5093638;28;19920;-69
2024/01/09 02:12:46;;;;;;;;;;;24.90;24.80;;;;;;5094519;28;19920;-68
2024/01/09 02:15:11;;;;;;;;;;;25.00;24.90;;;;;;5093026;28;20280;-68
2024/01/09 02:17:38;;;;;;;;;;;25.00;24.80;;;;;;5094355;28;19920;-69
2024/01/09 02:20:06;;;;;;;;;;;25.00;24.70;;;;;;5093300;28;19920;-69
2024/01/09 02:22:31;;;;;;;;;;;24.90;24.80;;;;;;5093066;28;19966;-68
2024/01/09 02:24:57;;;;;;;;;;;24.90;24.80;;;;;;5092876;28;19967;-68
2024/01/09 02:27:30;;;;;;;;;;;24.90;24.80;;;;;;5092923;28;19928;-68
2024/01/09 02:29:56;;;;;;;;;;;24.90;24.80;;;;;;5092976;28;19927;-69
2024/01/09 02:32:22;;;;;;;;;;;25.00;24.80;;;;;;5094157;28;19920;-69
2024/01/09 02:34:48;;;;;;;;;;;25.00;24.70;;;;;;5094382;28;19920;-68
2024/01/09 02:37:14;;;;;;;;;;;25.00;24.70;;;;;;5093031;28;19963;-68
2024/01/09 02:39:39;;;;;;;;;;;25.00;24.70;;;;;;5092712;28;20399;-68
2024/01/09 02:42:05;;;;;;;;;;;25.00;24.60;;;;;;5093964;28;19920;-68
2024/01/09 02:44:31;;;;;;;;;;;25.00;24.60;;;;;;5093900;28;20086;-68
2024/01/09 02:46:56;;;;;;;;;;;25.00;24.60;;;;;;5093862;28;19931;-68
2024/01/09 02:49:22;;;;;;;;;;;25.00;24.60;;;;;;5092792;28;19930;-68
2024/01/09 02:51:47;;;;;;;;;;;25.00;24.60;;;;;;5093643;28;20406;-68
2024/01/09 02:54:13;;;;;;;;;;;25.00;24.50;;;;;;5092670;28;19927;-68
2024/01/09 02:56:39;;;;;;;;;;;25.00;24.40;;;;;;5093643;28;19927;-68
2024/01/09 02:59:07;;;;;;;;;;;25.00;24.40;;;;;;5093657;28;19927;-69
2024/01/09 03:01:36;;;;;;;;;;;25.00;24.50;;;;;;5092416;28;20019;-68
2024/01/09 03:04:01;;;;;;;;;;;25.00;24.40;;;;;;5092541;28;19920;-68
2024/01/09 03:06:27;;;;;;;;;;;24.90;24.40;;;;;;5092018;28;19939;-69
2024/01/09 03:08:52;;;;;;;;;;;24.90;24.50;;;;;;5092514;28;20477;-68
2024/01/09 03:11:18;;;;;;;;;;;24.90;24.40;;;;;;5092343;28;20006;-68
2024/01/09 03:13:43;;;;;;;;;;;24.70;25.00;;;;;;5092479;28;19920;-68
2024/01/09 03:16:10;;;;;;;;;;;24.80;24.40;;;;;;5092435;28;19920;-68
2024/01/09 03:18:35;;;;;;;;;;;24.80;24.50;;;;;;5091940;28;19920;-69
2024/01/09 03:21:02;;;;;;;;;;;24.80;24.50;;;;;;5093090;28;19926;-68
2024/01/09 03:23:27;;;;;;;;;;;24.80;24.50;;;;;;5093201;28;19927;-68
2024/01/09 03:25:53;;;;;;;;;;;24.80;24.50;;;;;;5091765;28;20379;-68
2024/01/09 03:28:18;;;;;;;;;;;24.80;24.40;;;;;;5091780;28;19920;-69
2024/01/09 03:30:44;;;;;;;;;;;24.90;24.40;;;;;;5091983;28;19920;-68
2024/01/09 03:33:09;;;;;;;;;;;24.90;24.30;;;;;;5091741;28;19973;-68
2024/01/09 03:35:35;;;;;;;;;;;24.90;24.30;;;;;;5091909;28;19920;-68
2024/01/09 03:38:01;;;;;;;;;;;25.00;24.20;;;;;;5091290;28;19924;-69
2024/01/09 03:40:26;;;;;;;;;;;25.00;24.20;;;;;;5091854;28;19958;-68
2024/01/09 03:42:52;;;;;;;;;;;25.00;24.20;;;;;;5092842;28;20323;-68
2024/01/09 03:45:17;;;;;;;;;;;25.00;24.10;;;;;;5092760;28;19920;-68
2024/01/09 03:47:43;;;;;;;;;;;25.00;24.10;;;;;;5091237;28;20390;-68
2024/01/09 03:50:08;;;;;;;;;;;25.00;24.10;;;;;;5091740;28;19935;-68
2024/01/09 03:52:34;;;;;;;;;;;25.00;24.00;;;;;;5092952;28;19941;-68
2024/01/09 03:54:59;;;;;;;;;;;25.00;24.10;;;;;;5091452;28;19920;-68
2024/01/09 03:57:25;;;;;;;;;;;25.00;24.00;;;;;;5091574;28;19920;-68
2024/01/09 03:59:50;;;;;;;;;;;25.00;23.90;;;;;;5091329;28;20031;-68
2024/01/09 04:02:16;;;;;;;;;;;25.00;24.00;;;;;;5092514;28;19942;-68
2024/01/09 04:04:42;;;;;;;;;;;25.00;24.00;;;;;;5091550;28;19924;-68
2024/01/09 04:07:07;;;;;;;;;;;25.00;24.00;;;;;;5090984;28;20006;-68
2024/01/09 04:09:33;;;;;;;;;;;25.10;24.00;;;;;;5092452;28;20275;-68
2024/01/09 04:11:58;;;;;;;;;;;25.00;23.90;;;;;;5091540;28;19920;-68
2024/01/09 04:14:24;;;;;;;;;;;25.00;23.90;;;;;;5092413;28;20268;-68
2024/01/09 04:16:49;;;;;;;;;;;25.00;23.90;;;;;;5092380;28;20349;-69
2024/01/09 04:19:15;;;;;;;;;;;25.00;23.90;;;;;;5091022;28;20006;-69
2024/01/09 04:21:40;;;;;;;;;;;24.90;23.90;;;;;;5091440;28;19920;-68
2024/01/09 04:24:09;;;;;;;;;;;25.00;23.90;;;;;;5091342;28;19927;-68
2024/01/09 04:26:40;;;;;;;;;;;25.00;23.90;;;;;;5091161;28;19932;-68
2024/01/09 04:29:06;;;;;;;;;;;25.00;23.90;;;;;;5091421;28;19920;-69
2024/01/09 04:31:31;;;;;;;;;;;25.00;23.90;;;;;;5091015;28;20417;-68
2024/01/09 04:33:57;;;;;;;;;;;25.00;23.90;;;;;;5090878;28;19920;-68
2024/01/09 04:36:22;;;;;;;;;;;25.00;23.90;;;;;;5092546;28;19920;-68
2024/01/09 04:38:48;;;;;;;;;;;25.00;23.90;;;;;;5091169;28;19920;-69
2024/01/09 04:41:15;;;;;;;;;;;25.00;23.90;;;;;;5090903;28;20357;-68
2024/01/09 04:43:40;;;;;;;;;;;25.00;23.90;;;;;;5091144;28;20014;-68
2024/01/09 04:46:07;;;;;;;;;;;25.00;23.70;;;;;;5091147;28;20019;-68
2024/01/09 04:48:32;;;;;;;;;;;25.00;23.80;;;;;;5093056;28;20461;-68
2024/01/09 04:50:58;;;;;;;;;;;25.00;23.70;;;;;;5095002;28;19960;-69
2024/01/09 04:53:23;;;;;;;;;;;25.00;23.80;;;;;;5095044;28;19927;-69
2024/01/09 04:55:49;;;;;;;;;;;25.00;23.80;;;;;;5095037;28;19920;-68
2024/01/09 04:58:15;;;;;;;;;;;25.00;23.90;;;;;;5094649;28;20044;-68
2024/01/09 05:00:40;;;;;;;;;;;24.90;23.80;;;;;;5094741;28;19924;-68
2024/01/09 05:03:06;;;;;;;;;;;25.00;23.90;;;;;;5094495;28;19970;-68
2024/01/09 05:05:31;;;;;;;;;;;25.00;23.80;;;;;;5094349;28;19935;-69
2024/01/09 05:07:57;;;;;;;;;;;25.00;23.80;;;;;;5095806;28;19924;-68
2024/01/09 05:10:22;;;;;;;;;;;25.00;23.80;;;;;;5095562;28;19931;-68
2024/01/09 05:12:48;;;;;;;;;;;25.00;23.80;;;;;;5095687;28;20294;-68
2024/01/09 05:15:13;;;;;;;;;;;25.10;23.70;;;;;;5095448;28;19920;-68
2024/01/09 05:17:39;;;;;;;;;;;25.10;23.70;;;;;;5094506;28;20303;-69
2024/01/09 05:20:04;;;;;;;;;;;25.20;23.70;;;;;;5095345;28;19920;-68
2024/01/09 05:22:30;;;;;;;;;;;25.20;23.70;;;;;;5094555;28;19924;-68
2024/01/09 05:24:56;;;;;;;;;;;25.30;23.70;;;;;;5094571;28;19967;-69
2024/01/09 05:27:21;;;;;;;;;;;25.50;23.60;;;;;;5094061;28;20375;-68
2024/01/09 05:29:50;;;;;;;;;;;25.60;23.50;;;;;;5094298;28;19920;-68
2024/01/09 05:32:15;;;;;;;;;;;25.70;23.50;;;;;;5095366;28;19955;-68
2024/01/09 05:34:41;;;;;;;;;;;25.90;23.40;;;;;;5094289;28;19927;-68
2024/01/09 05:37:06;;;;;;;;;;;26.00;23.30;;;;;;5093820;28;19920;-68
2024/01/09 05:39:32;;;;;;;;;;;26.00;23.20;;;;;;5094201;28;19977;-69
2024/01/09 05:41:57;;;;;;;;;;;26.10;23.20;;;;;;5094990;28;20400;-68
2024/01/09 05:44:23;;;;;;;;;;;26.20;23.20;;;;;;5093760;28;19920;-68
2024/01/09 05:46:50;;;;;;;;;;;26.20;23.20;;;;;;5093677;28;19931;-68
2024/01/09 05:49:15;;;;;;;;;;;26.30;23.10;;;;;;5094011;28;20396;-68
2024/01/09 05:51:41;;;;;;;;;;;26.30;23.10;;;;;;5093513;28;19920;-68
2024/01/09 05:54:06;;;;;;;;;;;26.30;23.10;;;;;;5095052;28;19973;-68
2024/01/09 05:56:32;;;;;;;;;;;26.30;23.10;;;;;;5094761;28;20018;-69
2024/01/09 05:58:57;;;;;;;;;;;26.30;23.10;;;;;;5094706;28;19920;-68
2024/01/09 06:01:26;;;;;;;;;;;26.30;23.10;;;;;;5093365;28;19927;-68
2024/01/09 06:03:51;;;;;;;;;;;26.30;23.10;;;;;;5093768;28;19924;-68
2024/01/09 06:06:17;;;;;;;;;;;26.30;23.10;;;;;;5092965;28;20271;-68
2024/01/09 06:08:43;;;;;;;;;;;26.30;23.10;;;;;;5094575;28;20026;-69
2024/01/09 06:11:09;;;;;;;;;;;26.30;23.20;;;;;;5093171;28;19967;-69
2024/01/09 06:13:34;;;;;;;;;;;26.20;23.10;;;;;;5094504;28;20005;-69
2024/01/09 06:16:00;;;;;;;;;;;26.20;23.10;;;;;;5094478;28;19927;-68
2024/01/09 06:18:26;;;;;;;;;;;26.20;23.10;;;;;;5093164;28;19927;-69
2024/01/09 06:20:54;;;;;;;;;;;26.20;23.10;;;;;;5094294;28;19920;-69
2024/01/09 06:23:20;;;;;;;;;;;26.10;23.10;;;;;;5093303;28;19920;-68
2024/01/09 06:25:45;;;;;;;;;;;26.10;23.20;;;;;;5092924;28;19981;-68
2024/01/09 06:28:11;;;;;;;;;;;26.10;23.10;;;;;;5076347;28;20019;-68
2024/01/09 06:30:36;;;;;;;;;;;26.10;23.20;;;;;;5094219;28;20264;-68
2024/01/09 06:33:02;;;;;;;;;;;26.10;23.10;;;;;;5093150;28;19930;-66
2024/01/09 06:35:28;;;;;;;;;;;26.10;23.10;;;;;;5090826;28;20401;-69
2024/01/09 06:37:53;;;;;;;;;;;26.00;22.80;;;;;;5092885;28;19924;-69
2024/01/09 06:40:20;;;;;;;;;;;25.60;22.60;;;;;;5093024;28;19927;-67
2024/01/09 06:42:45;;;;;;;;;;;25.20;22.50;;;;;;5088908;28;19920;-65
2024/01/09 06:45:12;;;;;;;;;;;24.80;22.50;;;;;;5090497;28;19969;-67
2024/01/09 06:47:37;;;;;;;;;;;24.50;22.60;;;;;;5089261;28;20088;-68
2024/01/09 06:50:03;;;;;;;;;;;24.30;22.70;;;;;;5089307;28;19920;-68
2024/01/09 06:52:29;;;;;;;;;;;24.10;22.80;;;;;;5088330;28;19920;-68
2024/01/09 06:54:55;;;;;;;;;;;23.90;22.90;;;;;;5090896;28;19978;-69
2024/01/09 06:57:20;;;;;;;;;;;24.00;22.80;;;;;;5090071;28;19973;-68
2024/01/09 06:59:46;;;;;;;;;;;24.10;22.30;;;;;;5085595;28;19947;-67
2024/01/09 07:02:11;;;;;;;;;;;24.20;22.00;;;;;;5088934;28;19927;-68
2024/01/09 07:04:37;;;;;;;;;;;24.40;22.10;;;;;;5086706;28;19927;-67
2024/01/09 07:07:02;;;;;;;;;;;24.60;22.00;;;;;;5086186;28;19932;-67
2024/01/09 07:09:28;;;;;;;;;;;24.80;22.10;;;;;;5084494;28;19935;-68
2024/01/09 07:11:54;;;;;;;;;;;25.00;22.20;;;;;;5083395;28;19920;-67
2024/01/09 07:14:19;;;;;;;;;;;25.40;22.00;;;;;;5084337;28;19973;-68
2024/01/09 07:16:45;;;;;;;;;;;25.40;21.60;;;;;;5076527;28;19932;-68
2024/01/09 07:19:13;;;;;;;;;;;25.30;21.60;;;;;;5081818;28;19926;-68
2024/01/09 07:21:39;;;;;;;;;;;25.20;22.00;;;;;;5081817;28;19923;-67
2024/01/09 07:24:04;;;;;;;;;;;25.40;22.30;;;;;;5075970;28;20705;-68
2024/01/09 07:26:30;;;;;;;;;;;25.50;22.30;;;;;;5067177;28;19932;-68
2024/01/09 07:28:56;;;;;;;;;;;25.90;22.40;;;;;;5075985;28;19920;-67
2024/01/09 07:31:21;;;;;;;;;;;26.00;22.30;;;;;;5077863;28;20210;-70
2024/01/09 07:33:47;;;;;;;;;;;26.20;22.20;;;;;;5077357;28;19973;-65
2024/01/09 07:36:12;;;;;;;;;;;26.20;21.90;;;;;;5075721;28;19925;-68
2024/01/09 07:38:38;;;;;;;;;;;25.90;21.90;;;;;;5063812;28;19928;-65
2024/01/09 07:41:03;;;;;;;;;;;25.50;21.90;;;;;;5078272;28;19988;-70
2024/01/09 07:43:29;;;;;;;;;;;25.20;22.00;;;;;;5073050;28;19927;-69
2024/01/09 07:45:55;;;;;;;;;;;24.90;22.40;;;;;;5076615;28;19950;-69
2024/01/09 07:48:21;;;;;;;;;;;24.60;22.50;;;;;;5075717;28;19931;-68
2024/01/09 07:50:46;;;;;;;;;;;24.50;22.70;;;;;;5072929;28;19954;-66
2024/01/09 07:53:12;;;;;;;;;;;24.70;22.70;;;;;;5074087;28;19933;-67
2024/01/09 07:55:37;;;;;;;;;;;24.90;23.20;;;;;;5074729;28;20023;-66
2024/01/09 07:58:04;;;;;;;;;;;25.20;22.60;;;;;;5073421;28;19924;-66
2024/01/09 08:00:32;;;;;;;;;;;25.60;22.60;;;;;;5079101;28;20375;-67
2024/01/09 08:02:58;;;;;;;;;;;25.90;22.50;;;;;;5077373;28;19928;-69
2024/01/09 08:05:24;;;;;;;;;;;26.30;22.60;;;;;;5078669;28;20331;-68
2024/01/09 08:07:49;;;;;;;;;;;26.40;22.70;;;;;;5075097;28;19936;-67
2024/01/09 08:10:16;;;;;;;;;;;26.50;22.10;;;;;;5070359;28;19931;-66
2024/01/09 08:12:42;;;;;;;;;;;26.60;22.20;;;;;;5076254;28;19928;-66
2024/01/09 08:15:07;;;;;;;;;;;26.70;22.40;;;;;;5079874;28;19924;-67
2024/01/09 08:17:33;;;;;;;;;;;26.80;22.00;;;;;;5078382;28;19920;-67
2024/01/09 08:19:58;;;;;;;;;;;26.70;22.10;;;;;;5074336;28;19920;-67
2024/01/09 08:22:24;;;;;;;;;;;26.70;22.20;;;;;;5083198;28;19927;-67
2024/01/09 08:24:50;;;;;;;;;;;26.80;22.20;;;;;;5097073;28;19985;-67
2024/01/09 08:27:15;;;;;;;;;;;26.80;22.20;;;;;;5080113;28;20386;-66
2024/01/09 08:29:43;;;;;;;;;;;26.80;22.20;;;;;;5084300;28;19924;-67
2024/01/09 08:32:11;;;;;;;;;;;26.90;22.30;;;;;;5082267;28;19926;-67
2024/01/09 08:34:36;;;;;;;;;;;26.80;22.30;;;;;;5080302;28;19919;-67
2024/01/09 08:37:02;;;;;;;;;;;26.70;22.30;;;;;;5097925;27;19989;-67
2024/01/09 08:39:28;;;;;;;;;;;26.60;22.40;;;;;;5084532;28;20359;-67
2024/01/09 08:41:53;;;;;;;;;;;26.40;22.40;;;;;;5083976;28;20615;-68
2024/01/09 08:44:23;;;;;;;;;;;26.30;22.50;;;;;;5083355;28;19950;-67
2024/01/09 08:46:49;;;;;;;;;;;26.20;22.50;;;;;;5098975;27;19928;-67
2024/01/09 08:49:14;;;;;;;;;;;26.00;22.60;;;;;;5097519;28;19935;-67
2024/01/09 08:51:40;;;;;;;;;;;25.90;22.60;;;;;;5097842;27;19924;-66
2024/01/09 08:54:07;;;;;;;;;;;25.80;22.70;;;;;;5082675;28;19919;-65
2024/01/09 08:56:35;;;;;;;;;;;25.70;22.30;;;;;;5102939;27;19952;-66
2024/01/09 08:59:01;;;;;;;;;;;25.60;22.70;;;;;;5118798;27;19927;-67
2024/01/09 09:01:27;;;;;;;;;;;25.50;22.30;;;;;;5122088;27;20329;-66
2024/01/09 09:03:52;;;;;;;;;;;25.50;22.40;;;;;;5102746;27;20323;-67
2024/01/09 09:06:18;;;;;;;;;;;25.60;22.40;;;;;;5119748;27;19928;-66
2024/01/09 09:08:47;;;;;;;;;;;25.70;23.00;;;;;;5120013;27;19928;-66
2024/01/09 09:11:14;;;;;;;;;;;25.90;22.50;;;;;;5136048;27;20415;-66
2024/01/09 09:13:41;;;;;;;;;;;26.10;22.40;;;;;;5101397;27;19919;-67
2024/01/09 09:16:06;;;;;;;;;;;26.20;21.90;;;;;;5107147;27;19952;-68
2024/01/09 09:18:32;;;;;;;;;;;26.10;21.90;;;;;;5104653;27;20294;-66
2024/01/09 09:20:58;;;;;;;;;;;26.10;21.80;;;;;;5137945;27;19923;-67
2024/01/09 09:23:24;;;;;;;;;;;26.10;21.70;;;;;;5102704;27;19920;-67
2024/01/09 09:25:49;;;;;;;;;;;25.90;21.00;;;;;;5132709;27;19923;-68
2024/01/09 09:28:15;;;;;;;;;;;25.70;21.20;;;;;;5119694;27;20460;-66
2024/01/09 09:30:40;;;;;;;;;;;25.80;21.50;;;;;;5098875;27;20014;-67
2024/01/09 09:33:09;;;;;;;;;;;25.90;21.70;;;;;;5104128;27;19934;-67
2024/01/09 09:35:36;;;;;;;;;;;26.00;21.90;;;;;;5134518;27;20427;-66
2024/01/09 09:38:02;;;;;;;;;;;26.20;21.80;;;;;;5100471;27;19927;-66
2024/01/09 09:40:28;;;;;;;;;;;26.40;21.30;;;;;;5105751;27;20692;-66
2024/01/09 09:42:58;;;;;;;;;;;26.30;21.20;;;;;;5119462;27;19967;-68
2024/01/09 09:45:25;;;;;;;;;;;26.30;21.10;;;;;;5100431;27;19924;-67
2024/01/09 09:47:53;;;;;;;;;;;26.30;20.90;;;;;;5104773;27;20006;-67
2024/01/09 09:50:19;;;;;;;;;;;26.30;20.80;;;;;;5098409;27;19967;-68
2024/01/09 09:52:44;;;;;;;;;;;26.20;20.80;;;;;;5119659;27;19963;-67
2024/01/09 09:55:10;;;;;;;;;;;25.80;20.60;;;;;;5098883;27;20554;-67
2024/01/09 09:57:36;;;;;;;;;;;25.50;20.80;;;;;;5116459;27;19924;-67
2024/01/09 10:00:04;;;;;;;;;;;25.60;20.90;;;;;;5133206;27;19925;-68
2024/01/09 10:02:30;;;;;;;;;;;25.70;20.80;;;;;;5134065;27;20069;-66
2024/01/09 10:05:00;;;;;;;;;;;25.80;20.90;;;;;;5119502;27;19945;-67
2024/01/09 10:07:27;;;;;;;;;;;25.70;20.10;;;;;;5096283;27;19966;-69
2024/01/09 10:09:55;;;;;;;;;;;25.60;20.10;;;;;;5117797;27;19924;-67
2024/01/09 10:12:24;;;;;;;;;;;25.50;20.10;;;;;;5097658;27;19961;-67
2024/01/09 10:15:10;;;;;;;;;;;25.50;20.30;;;;;;5111721;27;19954;-68
2024/01/09 10:17:36;;;;;;;;;;;25.70;20.70;;;;;;5119795;27;20007;-67
2024/01/09 10:20:03;;;;;;;;;;;25.90;21.30;;;;;;5123429;27;20014;-67
2024/01/09 10:22:31;;;;;;;;;;;26.20;20.90;;;;;;5126035;27;19985;-66
2024/01/09 10:24:57;;;;;;;;;;;26.40;20.90;;;;;;5116731;27;19919;-67
2024/01/09 10:27:22;;;;;;;;;;;26.60;20.80;;;;;;5102032;27;19958;-66
2024/01/09 10:29:48;;;;;;;;;;;26.60;20.70;;;;;;5131320;27;19928;-66
2024/01/09 10:32:14;;;;;;;;;;;26.70;20.50;;;;;;5117688;27;19923;-65
2024/01/09 10:34:39;;;;;;;;;;;26.70;20.50;;;;;;5118952;27;19920;-66
2024/01/09 10:37:06;;;;;;;;;;;26.70;20.60;;;;;;5098885;27;19969;-65
2024/01/09 10:39:32;;;;;;;;;;;26.70;20.70;;;;;;5111043;27;20283;-66
2024/01/09 10:42:03;;;;;;;;;;;26.80;20.90;;;;;;5095338;27;19930;-66
2024/01/09 10:44:28;;;;;;;;;;;26.90;20.80;;;;;;5116837;27;20291;-67
2024/01/09 10:46:54;;;;;;;;;;;27.00;20.70;;;;;;5103179;27;19935;-67
2024/01/09 10:49:20;;;;;;;;;;;26.70;20.00;;;;;;5114993;27;19939;-67
2024/01/09 10:51:48;;;;;;;;;;;26.30;19.90;;;;;;5094495;27;19923;-69
2024/01/09 10:54:15;;;;;;;;;;;25.80;20.10;;;;;;5115685;27;19966;-68
2024/01/09 10:56:42;;;;;;;;;;;25.80;20.30;;;;;;5130565;27;19933;-67
2024/01/09 10:59:09;;;;;;;;;;;25.90;20.40;;;;;;5097985;27;19923;-66
2024/01/09 11:01:35;;;;;;;;;;;26.10;20.50;;;;;;5132705;27;19932;-67
2024/01/09 11:04:00;;;;;;;;;;;26.00;20.30;;;;;;5127192;27;19919;-66
2024/01/09 11:06:26;;;;;;;;;;;25.80;20.20;;;;;;5099979;27;20064;-66
2024/01/09 11:08:58;;;;;;;;;;;25.70;20.60;;;;;;5129354;27;19923;-66
2024/01/09 11:11:24;;;;;;;;;;;25.80;20.80;;;;;;5103931;27;20345;-65
2024/01/09 11:13:51;;;;;;;;;;;26.00;20.70;;;;;;5128196;27;19979;-66
2024/01/09 11:16:17;;;;;;;;;;;26.20;20.70;;;;;;5093981;27;20523;-66
2024/01/09 11:18:43;;;;;;;;;;;26.30;20.60;;;;;;5129881;27;19981;-66
2024/01/09 11:21:11;;;;;;;;;;;26.50;20.60;;;;;;5098565;28;20284;-66
2024/01/09 11:26:22;;;;;;;;;;;26.70;20.70;;;;;;5061570;28;19931;-65
2024/01/09 11:28:47;;;;;;;;;;;26.70;20.80;;;;;;5059599;28;19924;-65
2024/01/09 11:31:16;;;;;;;;;;;26.80;20.90;;;;;;5050224;28;19936;-65
2024/01/09 11:33:42;;;;;;;;;;;26.70;20.80;;;;;;5053802;28;20048;-64
2024/01/09 11:36:09;;;;;;;;;;;26.50;20.80;;;;;;5054549;28;20336;-64
2024/01/09 11:38:34;;;;;;;;;;;26.40;20.90;;;;;;5052306;28;19924;-65
2024/01/09 11:41:04;;;;;;;;;;;26.30;20.90;;;;;;5057112;28;19931;-66
2024/01/09 11:43:30;;;;;;;;;;;26.10;21.10;;;;;;5049481;28;19925;-64
2024/01/09 11:45:55;;;;;;;;;;;25.90;20.90;;;;;;5055837;28;20304;-64
2024/01/09 11:48:21;;;;;;;;;;;25.60;20.50;;;;;;5056614;28;19943;-66
2024/01/09 11:50:46;;;;;;;;;;;25.10;20.70;;;;;;5058498;28;20142;-66
2024/01/09 11:53:13;;;;;;;;;;;24.80;21.10;;;;;;5053334;28;20509;-65
2024/01/09 11:55:38;;;;;;;;;;;24.90;21.30;;;;;;5072130;28;20015;-64
2024/01/09 11:58:04;;;;;;;;;;;25.10;21.40;;;;;;5054151;28;20091;-66
2024/01/09 12:00:29;;;;;;;;;;;25.30;21.40;;;;;;5056810;28;19924;-68
2024/01/09 12:02:55;;;;;;;;;;;25.60;21.40;;;;;;5054386;28;19927;-68
2024/01/09 12:05:23;;;;;;;;;;;26.00;22.00;;;;;;5056202;28;19928;-67
2024/01/09 12:07:49;;;;;;;;;;;26.30;21.30;;;;;;5058377;28;19925;-69
2024/01/09 12:10:15;;;;;;;;;;;26.50;21.30;;;;;;5060820;28;20547;-68
2024/01/09 12:12:44;;;;;;;;;;;26.70;21.30;;;;;;5051063;28;20287;-69
2024/01/09 12:15:16;;;;;;;;;;;26.90;21.30;;;;;;5051732;28;20023;-69
2024/01/09 12:17:46;;;;;;;;;;;26.90;21.30;;;;;;5058333;28;19924;-70
2024/01/09 12:20:11;;;;;;;;;;;26.70;21.30;;;;;;5053531;28;19924;-69
2024/01/09 12:22:37;;;;;;;;;;;26.60;21.40;;;;;;5055833;28;20115;-70
2024/01/09 12:25:03;;;;;;;;;;;26.40;21.60;;;;;;5053721;28;20449;-69
2024/01/09 12:27:30;;;;;;;;;;;26.40;21.70;;;;;;5076725;28;20839;-71
2024/01/09 12:29:56;;;;;;;;;;;26.20;21.70;;;;;;5052760;28;19959;-68
2024/01/09 12:32:22;;;;;;;;;;;26.00;21.80;;;;;;5054055;28;20435;-71
2024/01/09 12:34:47;;;;;;;;;;;25.90;22.00;;;;;;5055801;28;19928;-69
2024/01/09 12:37:13;;;;;;;;;;;25.80;22.10;;;;;;5043223;28;19928;-70
2024/01/09 12:39:39;;;;;;;;;;;25.70;22.20;;;;;;5035067;28;19929;-70
2024/01/09 12:44:49;;;;;;;;;;;25.60;22.80;;;;;;5073604;27;19927;-68
2024/01/09 12:47:15;;;;;;;;;;;25.50;21.70;;;;;;5077564;28;19921;-67
2024/01/09 12:52:24;;;;;;;;;;;25.40;21.90;;;;;;5086288;27;19926;-73
2024/01/09 12:54:50;;;;;;;;;;;25.50;22.10;;;;;;5119515;27;19924;-66
2024/01/09 12:57:15;;;;;;;;;;;25.70;22.20;;;;;;5090218;28;20036;-68
2024/01/09 12:59:43;;;;;;;;;;;25.90;22.00;;;;;;5091087;28;19931;-68
2024/01/09 13:02:08;;;;;;;;;;;26.10;22.00;;;;;;5095813;28;19920;-66
2024/01/09 13:04:34;;;;;;;;;;;26.20;22.00;;;;;;5088480;28;20406;-69
2024/01/09 13:07:00;;;;;;;;;;;26.30;22.00;;;;;;5088464;28;19928;-70
2024/01/09 13:09:26;;;;;;;;;;;26.40;22.10;;;;;;5082417;28;20477;-71
2024/01/09 13:11:53;;;;;;;;;;;26.40;22.00;;;;;;5081627;28;19950;-69
2024/01/09 13:14:19;;;;;;;;;;;26.40;22.10;;;;;;5091326;28;19931;-69
2024/01/09 13:16:45;;;;;;;;;;;26.40;22.20;;;;;;5089062;28;19929;-69
2024/01/09 13:19:10;;;;;;;;;;;26.40;22.30;;;;;;5085720;28;20450;-69
2024/01/09 13:21:39;;;;;;;;;;;26.20;22.10;;;;;;5091240;28;19928;-68
2024/01/09 13:24:05;;;;;;;;;;;26.00;22.30;;;;;;5091128;28;19935;-70
2024/01/09 13:26:35;;;;;;;;;;;25.90;22.40;;;;;;5093553;28;19920;-70
2024/01/09 13:29:00;;;;;;;;;;;25.80;22.60;;;;;;5091576;28;19925;-69
2024/01/09 13:31:26;;;;;;;;;;;25.70;22.70;;;;;;5092912;28;19935;-70
2024/01/09 13:33:52;;;;;;;;;;;25.70;22.80;;;;;;5088133;28;19938;-70
2024/01/09 13:36:18;;;;;;;;;;;25.70;22.80;;;;;;5090472;28;19924;-69
2024/01/09 13:38:44;;;;;;;;;;;25.70;22.80;;;;;;5085199;28;19934;-68
2024/01/09 13:41:13;;;;;;;;;;;25.80;22.70;;;;;;5087851;28;19924;-69
2024/01/09 13:43:39;;;;;;;;;;;25.90;22.80;;;;;;5088900;28;20032;-69
2024/01/09 13:46:05;;;;;;;;;;;25.90;23.00;;;;;;5076582;28;20023;-66
2024/01/09 13:48:31;;;;;;;;;;;26.00;22.80;;;;;;5085099;28;20019;-70
2024/01/09 13:50:57;;;;;;;;;;;26.10;22.90;;;;;;5081884;28;19928;-69
2024/01/09 13:53:22;;;;;;;;;;;26.10;22.50;;;;;;5087582;28;20337;-67
2024/01/09 13:55:48;;;;;;;;;;;26.10;22.50;;;;;;5088332;28;19973;-68
2024/01/09 13:58:14;;;;;;;;;;;26.00;22.50;;;;;;5081824;28;19920;-67
2024/01/09 14:00:39;;;;;;;;;;;26.00;22.40;;;;;;5072408;28;19924;-67
2024/01/09 14:03:05;;;;;;;;;;;26.00;22.30;;;;;;5078410;28;20006;-66
2024/01/09 14:05:31;;;;;;;;;;;26.10;22.30;;;;;;5065799;28;20571;-68
2024/01/09 14:07:57;;;;;;;;;;;26.00;22.70;;;;;;5078536;28;19924;-66
2024/01/09 14:10:22;;;;;;;;;;;25.80;22.10;;;;;;5084220;28;19931;-67
2024/01/09 14:12:51;;;;;;;;;;;25.50;22.30;;;;;;5082196;28;20002;-68
2024/01/09 14:15:16;;;;;;;;;;;25.30;22.30;;;;;;5081442;28;19928;-67
2024/01/09 14:17:42;;;;;;;;;;;25.30;22.40;;;;;;5080650;28;20018;-67